Time;durP1;ratioP1;P1;durP2;ratioP2;P2;SDS_P1;SDS_P2;PMS_P1;PMS_P2;Temp;Humidity;BMP_temperature;BMP_pressure;BME280_temperature;BME280_humidity;BME280_pressure;Samples;Min_cycle;Max_cycle;Signal;HPM_P1;HPM_P2
2021/12/02 00:02:01;;;;;;;0.80;0.50;;;6.10;99.90;;;;;;5050861;28;20025;-64
2021/12/02 00:04:28;;;;;;;0.73;0.73;;;;;;;;;;5051819;28;20037;-64
2021/12/02 00:06:54;;;;;;;0.70;0.50;;;6.00;99.90;;;;;;5051885;28;20475;-64
2021/12/02 00:09:19;;;;;;;0.50;0.50;;;6.50;99.90;;;;;;5049086;28;20040;-64
2021/12/02 00:11:45;;;;;;;1.70;0.50;;;6.10;99.90;;;;;;5052309;28;20029;-64
2021/12/02 00:14:13;;;;;;;0.40;0.40;;;5.60;99.90;;;;;;5051586;28;20032;-64
2021/12/02 00:17:03;;;;;;;0.45;0.45;;;5.80;99.90;;;;;;5048216;28;20372;-64
2021/12/02 00:22:12;;;;;;;0.40;0.40;;;5.30;99.90;;;;;;5047383;28;20035;-67
2021/12/02 00:24:40;;;;;;;0.50;0.50;;;5.20;99.90;;;;;;5051721;28;20029;-64
2021/12/02 00:27:09;;;;;;;0.30;0.30;;;5.70;99.90;;;;;;5053045;28;20033;-65
2021/12/02 00:29:36;;;;;;;1.25;0.50;;;6.20;99.90;;;;;;5053517;28;20040;-64
2021/12/02 00:32:05;;;;;;;0.40;0.40;;;6.10;99.90;;;;;;5054700;28;20032;-65
2021/12/02 00:34:31;;;;;;;0.30;0.30;;;5.80;99.90;;;;;;5054353;28;20033;-65
2021/12/02 00:37:00;;;;;;;0.40;0.40;;;5.90;99.90;;;;;;5048592;28;20056;-65
2021/12/02 00:39:27;;;;;;;0.73;0.47;;;5.10;99.90;;;;;;5052162;28;20079;-65
2021/12/02 00:41:54;;;;;;;0.32;0.32;;;5.90;99.90;;;;;;5052237;28;20025;-65
2021/12/02 00:44:19;;;;;;;2.67;0.35;;;5.70;99.90;;;;;;5053318;28;20107;-65
2021/12/02 00:46:46;;;;;;;0.28;0.28;;;5.80;99.90;;;;;;5054658;28;20159;-64
2021/12/02 00:49:18;;;;;;;0.43;0.43;;;6.00;99.90;;;;;;5050243;28;20044;-65
2021/12/02 00:51:54;;;;;;;0.40;0.40;;;5.90;99.90;;;;;;5054407;28;20104;-65
2021/12/02 00:54:23;;;;;;;0.40;0.40;;;5.70;99.90;;;;;;5053991;28;20056;-64
2021/12/02 00:56:49;;;;;;;0.50;0.50;;;5.60;99.90;;;;;;5051074;28;20025;-64
2021/12/02 00:59:16;;;;;;;1.38;0.50;;;5.90;99.90;;;;;;5050524;28;20490;-64
2021/12/02 01:01:42;;;;;;;1.00;0.63;;;5.30;99.90;;;;;;5050986;28;20075;-64
2021/12/02 01:04:11;;;;;;;0.40;0.40;;;5.60;99.90;;;;;;5050943;28;20096;-64
2021/12/02 01:06:38;;;;;;;0.65;0.65;;;5.80;99.90;;;;;;5050397;28;20021;-64
2021/12/02 01:09:05;;;;;;;0.43;0.43;;;6.10;99.90;;;;;;5050138;28;20091;-65
2021/12/02 01:11:31;;;;;;;0.45;0.40;;;5.20;99.90;;;;;;5051969;28;20021;-65
2021/12/02 01:13:57;;;;;;;0.60;0.50;;;5.80;99.90;;;;;;5053638;28;20029;-64
2021/12/02 01:16:23;;;;;;;0.65;0.50;;;;;;;;;;5049653;28;20033;-65
2021/12/02 01:18:49;;;;;;;0.30;0.30;;;5.80;99.90;;;;;;5054246;28;20025;-65
2021/12/02 01:21:19;;;;;;;0.80;0.45;;;6.10;99.90;;;;;;5054405;28;20032;-65
2021/12/02 01:23:50;;;;;;;0.30;0.30;;;6.00;99.90;;;;;;5053991;28;20395;-65
2021/12/02 01:26:18;;;;;;;0.50;0.50;;;6.00;99.90;;;;;;5035762;28;20167;-65
2021/12/02 01:28:45;;;;;;;0.80;0.50;;;5.90;99.90;;;;;;5051093;28;20037;-64
2021/12/02 01:31:12;;;;;;;0.65;0.52;;;5.80;99.90;;;;;;5057666;28;20029;-64
2021/12/02 01:33:39;;;;;;;0.57;0.50;;;5.00;99.90;;;;;;5056245;28;20021;-64
2021/12/02 01:36:05;;;;;;;0.50;0.50;;;6.10;99.90;;;;;;5058449;28;20029;-64
2021/12/02 01:38:32;;;;;;;1.13;0.63;;;5.50;99.90;;;;;;5062572;28;20033;-65
2021/12/02 01:41:00;;;;;;;0.70;0.70;;;5.80;99.90;;;;;;5061995;28;20043;-65
2021/12/02 01:43:47;;;;;;;1.27;0.38;;;5.90;99.90;;;;;;5058384;28;20029;-65
2021/12/02 01:46:15;;;;;;;2.95;0.60;;;5.90;99.90;;;;;;5057503;28;20112;-64
2021/12/02 01:48:43;;;;;;;2.65;0.50;;;5.60;99.90;;;;;;5069601;28;20040;-63
2021/12/02 01:51:13;;;;;;;1.45;0.60;;;5.90;99.90;;;;;;5076581;28;20029;-65
2021/12/02 01:53:40;;;;;;;1.55;0.80;;;5.40;99.90;;;;;;5076157;28;20023;-64
2021/12/02 01:56:13;;;;;;;2.58;0.70;;;5.60;99.90;;;;;;5057996;28;20031;-65
2021/12/02 01:58:44;;;;;;;1.10;0.75;;;6.00;99.90;;;;;;5039032;28;20022;-65
2021/12/02 02:01:15;;;;;;;3.40;1.10;;;5.70;99.90;;;;;;5042875;28;20060;-65
2021/12/02 02:03:41;;;;;;;2.63;0.70;;;5.60;99.90;;;;;;5057327;28;20079;-65
2021/12/02 02:06:09;;;;;;;1.80;0.60;;;4.90;99.90;;;;;;5059013;28;20033;-64
2021/12/02 02:08:41;;;;;;;1.88;0.60;;;4.90;99.90;;;;;;5059632;28;20468;-64
2021/12/02 02:11:08;;;;;;;4.28;0.75;;;5.40;99.90;;;;;;5055755;28;20442;-64
2021/12/02 02:13:34;;;;;;;1.77;0.82;;;5.70;99.90;;;;;;5059503;28;20253;-65
2021/12/02 02:16:00;;;;;;;1.42;0.98;;;5.40;99.90;;;;;;5065007;28;20031;-64
2021/12/02 02:18:26;;;;;;;1.98;0.77;;;5.60;99.90;;;;;;5055690;28;20462;-64
2021/12/02 02:21:02;;;;;;;0.68;0.68;;;6.10;99.90;;;;;;5066204;28;20163;-64
2021/12/02 02:23:31;;;;;;;1.77;0.80;;;6.10;99.90;;;;;;5052584;28;20107;-65
2021/12/02 02:25:58;;;;;;;0.52;0.52;;;5.90;99.90;;;;;;5051784;28;20029;-65
2021/12/02 02:28:23;;;;;;;1.55;0.55;;;5.50;99.90;;;;;;5052520;28;20025;-65
2021/12/02 02:30:49;;;;;;;1.65;0.75;;;4.90;99.90;;;;;;5048638;28;20078;-64
2021/12/02 02:33:18;;;;;;;1.27;0.60;;;5.50;99.90;;;;;;5034971;28;20025;-64
2021/12/02 02:35:45;;;;;;;1.13;0.60;;;5.20;99.90;;;;;;5052476;28;20017;-64
2021/12/02 02:38:11;;;;;;;1.75;0.50;;;5.20;99.90;;;;;;5051949;28;20051;-65
2021/12/02 02:40:40;;;;;;;0.93;0.70;;;5.30;99.90;;;;;;5049485;28;20029;-64
2021/12/02 02:43:08;;;;;;;0.80;0.60;;;4.20;99.90;;;;;;5050773;28;20368;-64
2021/12/02 02:45:38;;;;;;;0.93;0.50;;;5.70;99.90;;;;;;5049786;28;20423;-65
2021/12/02 02:48:05;;;;;;;0.30;0.30;;;5.50;99.90;;;;;;5052344;28;20025;-64
2021/12/02 02:50:32;;;;;;;1.60;0.60;;;5.40;99.90;;;;;;5051632;28;20074;-65
2021/12/02 02:53:03;;;;;;;2.08;0.50;;;5.70;99.90;;;;;;5052271;28;20033;-65
2021/12/02 02:55:29;;;;;;;2.47;0.70;;;4.60;99.90;;;;;;5052015;28;20483;-64
2021/12/02 02:58:25;;;;;;;1.75;0.50;;;5.10;99.90;;;;;;5047954;28;20067;-64
2021/12/02 03:00:55;;;;;;;1.60;0.43;;;4.90;99.90;;;;;;5052024;28;20099;-65
2021/12/02 03:06:20;;;;;;;1.08;0.70;;;4.60;99.90;;;;;;5051541;28;20079;-64
2021/12/02 03:08:53;;;;;;;1.23;0.73;;;4.80;99.90;;;;;;5052050;28;20048;-65
2021/12/02 03:11:20;;;;;;;1.25;0.52;;;5.00;99.90;;;;;;5048051;28;20037;-65
2021/12/02 03:13:51;;;;;;;1.08;0.47;;;5.30;99.90;;;;;;5052090;28;20029;-65
2021/12/02 03:19:05;;;;;;;0.60;0.60;;;4.00;99.90;;;;;;5052136;28;20047;-63
2021/12/02 03:21:31;;;;;;;0.60;0.60;;;5.00;99.90;;;;;;5052140;28;20475;-63
2021/12/02 03:23:59;;;;;;;0.50;0.50;;;4.20;99.90;;;;;;5045866;28;20090;-62
2021/12/02 03:26:26;;;;;;;1.00;0.60;;;4.90;99.90;;;;;;5032312;28;20093;-62
2021/12/02 03:28:52;;;;;;;0.40;0.40;;;4.90;99.90;;;;;;5051593;28;20036;-62
2021/12/02 03:31:19;;;;;;;0.93;0.65;;;5.10;99.90;;;;;;5047458;28;20196;-63
2021/12/02 03:33:45;;;;;;;1.00;0.50;;;4.20;99.90;;;;;;5052053;28;20025;-63
2021/12/02 03:36:12;;;;;;;0.50;0.40;;;4.90;99.90;;;;;;5051702;28;20078;-63
2021/12/02 03:38:38;;;;;;;0.70;0.70;;;4.90;99.90;;;;;;5050439;28;20044;-63
2021/12/02 03:41:04;;;;;;;0.77;0.57;;;4.40;99.90;;;;;;5052052;28;20033;-64
2021/12/02 03:43:41;;;;;;;1.33;0.70;;;4.40;99.90;;;;;;5050655;28;20096;-65
2021/12/02 03:46:08;;;;;;;0.60;0.60;;;4.50;99.90;;;;;;5051121;28;20029;-65
2021/12/02 03:48:36;;;;;;;2.28;0.60;;;4.80;99.90;;;;;;5051901;28;20032;-66
2021/12/02 03:51:05;;;;;;;2.20;0.82;;;5.30;99.90;;;;;;5051171;28;20024;-64
2021/12/02 03:53:31;;;;;;;0.50;0.50;;;4.40;99.90;;;;;;5051564;28;20066;-63
2021/12/02 03:55:57;;;;;;;0.80;0.50;;;4.80;99.90;;;;;;5050424;28;20387;-64
2021/12/02 03:58:22;;;;;;;0.90;0.52;;;3.90;99.90;;;;;;5050239;28;20017;-64
2021/12/02 04:00:48;;;;;;;1.10;0.60;;;4.60;99.90;;;;;;5051363;28;20402;-64
2021/12/02 04:03:14;;;;;;;0.95;0.55;;;4.30;99.90;;;;;;5051354;28;20537;-63
2021/12/02 04:05:40;;;;;;;1.85;0.60;;;;;;;;;;5049833;28;20043;-64
2021/12/02 04:08:06;;;;;;;1.02;0.50;;;4.60;99.90;;;;;;5051107;28;20021;-64
2021/12/02 04:10:32;;;;;;;0.47;0.47;;;4.20;99.90;;;;;;5048603;28;20057;-63
2021/12/02 04:15:36;;;;;;;0.60;0.60;;;4.80;99.90;;;;;;5050803;28;20078;-63
2021/12/02 04:18:02;;;;;;;1.08;0.60;;;4.30;99.90;;;;;;5050581;28;20032;-65
2021/12/02 04:20:27;;;;;;;0.75;0.50;;;4.50;99.90;;;;;;5051251;28;20017;-62
2021/12/02 04:22:58;;;;;;;0.68;0.68;;;5.00;99.90;;;;;;5051210;28;20025;-63
2021/12/02 04:25:25;;;;;;;0.60;0.60;;;4.70;99.90;;;;;;5036940;28;20026;-63
2021/12/02 04:27:52;;;;;;;0.77;0.60;;;4.60;99.90;;;;;;5030973;28;20387;-62
2021/12/02 04:30:21;;;;;;;1.85;0.75;;;4.40;99.90;;;;;;5029778;28;20024;-63
2021/12/02 04:32:47;;;;;;;0.70;0.70;;;4.70;99.90;;;;;;5047992;28;20487;-63
2021/12/02 04:35:14;;;;;;;1.27;0.45;;;4.80;99.90;;;;;;5050456;28;20437;-63
2021/12/02 04:37:40;;;;;;;1.05;1.00;;;4.50;99.90;;;;;;5050708;28;20037;-62
2021/12/02 04:40:07;;;;;;;0.82;0.70;;;4.70;99.90;;;;;;5051044;28;20325;-64
2021/12/02 04:42:33;;;;;;;0.90;0.90;;;5.00;99.90;;;;;;5050084;28;20033;-64
2021/12/02 04:44:59;;;;;;;0.82;0.82;;;4.60;99.90;;;;;;5049274;28;20025;-63
2021/12/02 04:47:25;;;;;;;0.90;0.90;;;4.70;99.90;;;;;;5050926;28;20041;-62
2021/12/02 04:49:51;;;;;;;0.90;0.90;;;4.70;99.90;;;;;;5050916;28;20031;-63
2021/12/02 04:52:17;;;;;;;1.50;1.00;;;4.70;99.90;;;;;;5054748;28;20021;-62
2021/12/02 04:54:42;;;;;;;0.95;0.95;;;4.90;99.90;;;;;;5053941;28;20495;-64
2021/12/02 04:57:08;;;;;;;1.00;1.00;;;4.60;99.90;;;;;;5053892;28;20033;-63
2021/12/02 04:59:34;;;;;;;1.30;1.20;;;5.20;99.90;;;;;;5054305;28;20021;-64
2021/12/02 05:01:59;;;;;;;1.17;0.90;;;4.90;99.90;;;;;;5050252;28;20032;-63
2021/12/02 05:04:25;;;;;;;1.55;1.10;;;4.70;99.90;;;;;;5054040;28;20029;-64
2021/12/02 05:06:51;;;;;;;1.65;0.80;;;5.00;99.90;;;;;;5053451;28;20051;-63
2021/12/02 05:09:17;;;;;;;5.03;1.30;;;5.70;99.90;;;;;;5054165;28;20029;-64
2021/12/02 05:11:42;;;;;;;1.65;1.25;;;5.30;99.90;;;;;;5054488;28;20095;-64
2021/12/02 05:14:08;;;;;;;2.55;1.40;;;4.60;99.90;;;;;;5049784;28;20483;-64
2021/12/02 05:16:39;;;;;;;1.40;1.30;;;4.70;99.90;;;;;;5053820;28;20033;-64
2021/12/02 05:19:05;;;;;;;2.70;1.33;;;5.30;99.90;;;;;;5053360;28;20025;-64
2021/12/02 05:21:30;;;;;;;2.47;1.38;;;4.90;99.90;;;;;;5054184;28;20029;-64
2021/12/02 05:23:56;;;;;;;2.13;1.20;;;5.00;99.90;;;;;;5053903;28;20155;-64
2021/12/02 05:26:23;;;;;;;1.13;1.00;;;4.90;99.90;;;;;;5048405;28;20029;-69
2021/12/02 05:28:50;;;;;;;1.48;1.10;;;4.80;99.90;;;;;;5045220;28;20044;-68
2021/12/02 05:31:16;;;;;;;1.50;1.00;;;5.30;99.90;;;;;;5043602;28;20033;-68
2021/12/02 05:33:42;;;;;;;1.27;0.80;;;4.70;99.90;;;;;;5045690;28;20452;-68
2021/12/02 05:36:08;;;;;;;0.75;0.73;;;5.30;99.90;;;;;;5046463;28;20100;-68
2021/12/02 05:38:34;;;;;;;1.30;0.90;;;5.20;99.90;;;;;;5053133;28;20116;-68
2021/12/02 05:41:01;;;;;;;1.67;1.00;;;5.30;99.90;;;;;;5034217;28;20029;-68
2021/12/02 05:43:26;;;;;;;1.27;1.15;;;5.20;99.90;;;;;;5035107;28;20032;-66
2021/12/02 05:45:52;;;;;;;1.38;1.05;;;5.40;99.90;;;;;;5053272;28;20025;-66
2021/12/02 05:48:18;;;;;;;1.15;1.05;;;5.10;99.90;;;;;;5053448;28;20092;-67
2021/12/02 05:50:43;;;;;;;1.15;1.00;;;4.90;99.90;;;;;;5049675;28;20055;-68
2021/12/02 05:53:09;;;;;;;1.13;0.90;;;4.90;99.90;;;;;;5053729;28;20060;-67
2021/12/02 05:55:35;;;;;;;1.13;0.90;;;5.00;99.90;;;;;;5052501;28;20049;-66
2021/12/02 05:58:01;;;;;;;2.75;1.08;;;;;;;;;;5053238;28;20029;-68
2021/12/02 06:00:27;;;;;;;1.50;1.10;;;;;;;;;;5051601;28;20422;-68
2021/12/02 06:02:53;;;;;;;1.38;1.25;;;;;;;;;;5053052;28;20036;-68
2021/12/02 06:05:22;;;;;;;3.53;1.70;;;;;;;;;;5053171;28;20052;-68
2021/12/02 06:07:53;;;;;;;1.10;0.95;;;5.10;99.90;;;;;;5053194;28;20053;-66
2021/12/02 06:10:19;;;;;;;2.10;1.23;;;5.40;99.90;;;;;;5053889;28;20037;-68
2021/12/02 06:12:45;;;;;;;2.05;1.30;;;5.50;99.90;;;;;;5073442;28;20528;-70
2021/12/02 06:15:11;;;;;;;1.15;1.00;;;5.10;99.90;;;;;;5062364;28;20029;-69
2021/12/02 06:17:37;;;;;;;2.13;1.20;;;5.70;99.90;;;;;;5053410;28;20017;-70
2021/12/02 06:20:07;;;;;;;1.77;1.40;;;4.90;99.90;;;;;;5052775;28;20471;-69
2021/12/02 06:22:33;;;;;;;1.38;1.27;;;4.90;99.90;;;;;;5052161;28;20060;-70
2021/12/02 06:27:41;;;;;;;2.85;1.60;;;5.00;99.90;;;;;;5050834;28;20056;-70
2021/12/02 06:30:07;;;;;;;3.72;2.47;;;5.40;99.90;;;;;;5051316;28;20029;-69
2021/12/02 06:32:33;;;;;;;1.85;1.38;;;5.00;99.90;;;;;;5052734;28;20665;-69
2021/12/02 06:34:59;;;;;;;1.60;1.50;;;4.80;99.90;;;;;;5051448;28;20052;-69
2021/12/02 06:37:25;;;;;;;1.63;1.40;;;4.90;99.90;;;;;;5052879;28;20021;-68
2021/12/02 06:39:51;;;;;;;2.75;1.63;;;4.90;99.90;;;;;;5052602;28;20048;-69
2021/12/02 06:42:18;;;;;;;2.10;1.55;;;5.20;99.90;;;;;;5052209;28;20024;-69
2021/12/02 06:44:44;;;;;;;1.88;1.60;;;5.00;99.90;;;;;;5051884;28;20124;-69
2021/12/02 06:47:10;;;;;;;1.80;1.70;;;4.90;99.90;;;;;;5051917;28;20141;-68
2021/12/02 06:49:38;;;;;;;2.88;1.70;;;5.00;99.90;;;;;;5051633;28;20033;-69
2021/12/02 06:52:05;;;;;;;2.47;1.70;;;5.60;99.90;;;;;;5052847;28;20029;-68
2021/12/02 06:54:31;;;;;;;2.60;1.70;;;5.00;99.90;;;;;;5052149;28;20364;-68
2021/12/02 06:56:57;;;;;;;2.25;1.80;;;5.00;99.90;;;;;;5052450;28;20032;-62
2021/12/02 06:59:22;;;;;;;3.08;1.75;;;4.80;99.90;;;;;;5051196;28;20026;-62
2021/12/02 07:01:49;;;;;;;2.30;2.10;;;4.70;99.90;;;;;;5052098;28;20025;-64
2021/12/02 07:04:14;;;;;;;2.60;1.70;;;4.80;99.90;;;;;;5052615;28;20430;-62
2021/12/02 07:06:40;;;;;;;4.82;2.08;;;4.70;99.90;;;;;;5032300;28;20025;-64
2021/12/02 07:09:06;;;;;;;2.97;2.00;;;4.90;99.90;;;;;;5052060;28;20423;-66
2021/12/02 07:11:32;;;;;;;4.47;1.92;;;6.10;99.90;;;;;;5051131;28;20029;-63
2021/12/02 07:14:11;;;;;;;2.65;1.80;;;4.60;99.90;;;;;;5051618;28;20033;-63
2021/12/02 07:16:38;;;;;;;2.28;2.00;;;4.60;99.90;;;;;;5051302;28;20472;-62
2021/12/02 07:19:08;;;;;;;4.85;1.92;;;4.60;99.90;;;;;;5051294;28;20037;-62
2021/12/02 07:21:37;;;;;;;4.63;3.45;;;4.70;99.90;;;;;;5052255;28;20025;-62
2021/12/02 07:24:04;;;;;;;2.88;1.98;;;4.70;99.90;;;;;;5051837;28;20027;-64
2021/12/02 07:26:34;;;;;;;3.35;2.67;;;4.60;99.90;;;;;;5051219;28;20039;-62
2021/12/02 07:28:59;;;;;;;3.15;2.20;;;4.90;99.90;;;;;;5051915;28;20386;-62
2021/12/02 07:31:30;;;;;;;3.30;2.33;;;5.30;99.90;;;;;;5050366;28;20025;-62
2021/12/02 07:33:57;;;;;;;78.47;46.42;;;5.00;99.90;;;;;;5051805;28;20052;-62
2021/12/02 07:36:23;;;;;;;9.57;6.40;;;5.10;99.90;;;;;;5051002;28;20028;-62
2021/12/02 07:38:50;;;;;;;9.35;7.50;;;5.30;99.90;;;;;;5050563;28;20037;-62
2021/12/02 07:41:16;;;;;;;24.63;12.40;;;5.80;99.90;;;;;;5051792;28;20029;-62
2021/12/02 07:43:41;;;;;;;4.72;3.88;;;7.80;99.90;;;;;;5049066;28;20025;-64
2021/12/02 07:46:08;;;;;;;2.42;1.60;;;8.30;99.90;;;;;;5050877;28;20033;-62
2021/12/02 07:48:35;;;;;;;1.40;1.30;;;8.50;99.90;;;;;;5051487;28;20036;-62
2021/12/02 07:51:07;;;;;;;1.67;1.40;;;8.20;99.90;;;;;;5050654;28;20637;-61
2021/12/02 07:53:34;;;;;;;2.85;1.35;;;7.90;99.90;;;;;;5051458;28;20024;-62
2021/12/02 07:56:03;;;;;;;11.80;6.10;;;7.80;99.90;;;;;;5047074;28;20037;-60
2021/12/02 07:58:30;;;;;;;3.83;2.20;;;7.30;99.90;;;;;;5050963;28;20032;-64
2021/12/02 08:01:00;;;;;;;1.67;1.58;;;7.00;99.90;;;;;;5050678;28;20102;-65
2021/12/02 08:03:26;;;;;;;1.38;1.02;;;6.50;99.90;;;;;;5031310;28;20056;-63
2021/12/02 08:05:53;;;;;;;5.43;3.53;;;6.10;99.90;;;;;;5031025;28;20033;-64
2021/12/02 08:08:19;;;;;;;41.88;21.63;;;5.80;99.90;;;;;;5038396;28;20036;-63
2021/12/02 08:10:45;;;;;;;15.82;10.00;;;5.80;99.90;;;;;;5051233;28;20051;-63
2021/12/02 08:13:15;;;;;;;3.70;3.10;;;5.60;99.90;;;;;;5050297;28;20017;-63
2021/12/02 08:15:42;;;;;;;3.17;2.00;;;5.40;99.90;;;;;;5050395;28;20031;-61
2021/12/02 08:18:08;;;;;;;3.58;3.30;;;5.40;99.90;;;;;;5051032;28;20021;-63
2021/12/02 08:20:35;;;;;;;2.70;2.05;;;5.30;99.90;;;;;;5047667;28;20029;-64
2021/12/02 08:23:01;;;;;;;2.15;1.30;;;5.60;99.90;;;;;;5051363;28;20029;-64
2021/12/02 08:25:28;;;;;;;5.18;4.78;;;5.20;99.90;;;;;;5053893;28;20502;-64
2021/12/02 08:27:55;;;;;;;5.50;3.47;;;5.50;99.90;;;;;;5055166;28;20028;-63
2021/12/02 08:30:24;;;;;;;3.00;2.33;;;5.50;99.90;;;;;;5054924;28;20543;-62
2021/12/02 08:32:50;;;;;;;4.82;4.43;;;6.00;99.90;;;;;;5050802;28;20079;-64
2021/12/02 08:35:17;;;;;;;1.60;1.50;;;6.80;99.90;;;;;;5054656;28;20075;-63
2021/12/02 08:37:45;;;;;;;4.82;1.92;;;7.40;99.90;;;;;;5053358;28;20572;-63
2021/12/02 08:40:14;;;;;;;2.63;1.23;;;7.50;99.90;;;;;;5055304;28;20112;-63
2021/12/02 08:42:39;;;;;;;6.75;5.88;;;7.60;99.90;;;;;;5055198;28;20108;-63
2021/12/02 08:45:05;;;;;;;1.90;1.40;;;7.60;99.90;;;;;;5049647;28;20105;-63
2021/12/02 08:47:31;;;;;;;3.80;2.28;;;7.70;99.90;;;;;;5054846;28;20108;-63
2021/12/02 08:49:58;;;;;;;1.42;1.33;;;8.20;99.90;;;;;;5053298;28;20183;-64
2021/12/02 08:52:27;;;;;;;0.90;0.90;;;8.70;99.90;;;;;;5054660;28;20514;-61
2021/12/02 08:54:55;;;;;;;1.55;1.27;;;8.30;99.90;;;;;;5053674;28;20561;-63
2021/12/02 08:57:22;;;;;;;2.28;1.40;;;8.50;99.90;;;;;;5051365;28;20033;-62
2021/12/02 08:59:49;;;;;;;1.52;0.90;;;8.60;99.90;;;;;;5054330;28;20096;-63
2021/12/02 09:02:15;;;;;;;1.38;1.02;;;8.50;99.90;;;;;;5053886;28;20029;-63
2021/12/02 09:04:41;;;;;;;0.80;0.80;;;8.60;99.90;;;;;;5053673;28;20041;-62
2021/12/02 09:07:07;;;;;;;0.77;0.77;;;8.50;99.90;;;;;;5051806;28;20513;-62
2021/12/02 09:09:35;;;;;;;0.85;0.82;;;8.60;99.90;;;;;;5053058;28;20032;-62
2021/12/02 09:12:01;;;;;;;1.73;1.05;;;8.70;99.90;;;;;;5056462;28;20506;-64
2021/12/02 09:14:27;;;;;;;1.95;1.48;;;9.30;99.90;;;;;;5063262;28;20052;-63
2021/12/02 09:16:53;;;;;;;1.95;0.90;;;10.00;99.90;;;;;;5058070;28;20020;-62
2021/12/02 09:19:19;;;;;;;0.70;0.70;;;10.20;99.90;;;;;;5049775;28;20060;-62
2021/12/02 09:21:45;;;;;;;2.65;1.00;;;9.80;99.90;;;;;;5054529;28;20024;-61
2021/12/02 09:24:18;;;;;;;1.00;0.70;;;9.70;99.90;;;;;;5054397;28;20033;-60
2021/12/02 09:26:46;;;;;;;1.02;0.80;;;10.20;99.90;;;;;;5042810;28;20041;-61
2021/12/02 09:29:12;;;;;;;1.77;0.98;;;9.40;99.90;;;;;;5054205;28;20053;-60
2021/12/02 09:31:37;;;;;;;2.15;1.67;;;9.30;99.90;;;;;;5049677;28;20443;-62
2021/12/02 09:34:03;;;;;;;1.70;1.30;;;8.50;99.90;;;;;;5054008;28;20104;-62
2021/12/02 09:36:29;;;;;;;1.00;0.90;;;8.60;99.90;;;;;;5054000;28;20383;-62
2021/12/02 09:38:54;;;;;;;1.23;0.90;;;8.60;99.90;;;;;;5058769;28;20506;-63
2021/12/02 09:41:20;;;;;;;1.67;0.90;;;8.40;99.90;;;;;;5065863;28;20465;-60
2021/12/02 09:43:46;;;;;;;2.10;1.08;;;7.80;99.90;;;;;;5051403;28;20060;-63
2021/12/02 09:46:13;;;;;;;4.20;1.10;;;6.90;99.90;;;;;;5053729;28;20025;-61
2021/12/02 09:48:38;;;;;;;2.85;0.95;;;7.00;99.90;;;;;;5053966;28;20025;-63
2021/12/02 09:51:13;;;;;;;6.63;0.90;;;6.70;99.90;;;;;;5053112;28;20630;-64
2021/12/02 09:53:52;;;;;;;1.08;0.90;;;6.90;99.90;;;;;;5054373;28;20029;-65
2021/12/02 09:56:29;;;;;;;1.40;1.00;;;7.20;99.90;;;;;;5048732;28;20021;-65
2021/12/02 09:59:02;;;;;;;2.78;1.00;;;7.40;99.90;;;;;;5053453;28;20379;-63
2021/12/02 10:01:40;;;;;;;1.63;0.95;;;7.60;99.90;;;;;;5047140;28;20112;-63
2021/12/02 10:04:09;;;;;;;1.33;0.95;;;7.90;99.90;;;;;;5033955;28;20026;-64
2021/12/02 10:06:34;;;;;;;2.67;1.02;;;7.90;99.90;;;;;;5032738;28;20454;-64
2021/12/02 10:09:15;;;;;;;1.48;1.00;;;7.40;99.90;;;;;;5051231;28;20049;-64
2021/12/02 10:11:53;;;;;;;1.52;0.90;;;7.30;99.90;;;;;;5053336;28;20121;-64
2021/12/02 10:14:27;;;;;;;0.80;0.80;;;7.20;99.90;;;;;;5052269;28;20040;-64
2021/12/02 10:17:24;;;;;;;5.55;1.08;;;7.40;99.90;;;;;;5053145;28;20051;-64
2021/12/02 10:20:15;;;;;;;1.50;1.00;;;7.00;99.90;;;;;;5049161;28;20064;-63
2021/12/02 10:22:45;;;;;;;6.05;2.50;;;7.40;99.90;;;;;;5053907;28;20090;-63
2021/12/02 10:25:11;;;;;;;2.63;1.52;;;6.70;99.90;;;;;;5052580;28;20084;-63
2021/12/02 10:27:57;;;;;;;2.20;1.20;;;6.90;99.90;;;;;;5054697;28;20016;-66
2021/12/02 10:30:24;;;;;;;2.08;1.30;;;6.70;99.90;;;;;;5052213;28;20083;-65
2021/12/02 10:32:51;;;;;;;1.40;0.95;;;6.60;99.90;;;;;;5053042;28;20029;-63
2021/12/02 10:35:18;;;;;;;2.15;1.00;;;6.40;99.90;;;;;;5052583;28;20024;-63
2021/12/02 10:37:44;;;;;;;1.98;1.05;;;6.10;99.90;;;;;;5052250;28;20025;-63
2021/12/02 10:40:20;;;;;;;1.05;0.80;;;6.20;99.90;;;;;;5053293;28;20086;-64
2021/12/02 10:42:46;;;;;;;0.98;0.70;;;6.00;99.90;;;;;;5052014;28;20499;-63
2021/12/02 10:45:27;;;;;;;1.52;0.80;;;6.20;99.90;;;;;;5052513;28;20200;-63
2021/12/02 10:47:54;;;;;;;2.85;0.60;;;5.80;99.90;;;;;;5052289;28;20025;-64
2021/12/02 10:50:22;;;;;;;1.63;0.60;;;6.30;99.90;;;;;;5051794;28;20105;-62
2021/12/02 10:52:49;;;;;;;2.95;0.43;;;6.10;99.90;;;;;;5053225;28;20021;-64
2021/12/02 10:55:18;;;;;;;0.75;0.75;;;6.60;99.90;;;;;;5045239;28;20049;-64
2021/12/02 10:57:52;;;;;;;0.98;0.63;;;6.40;99.90;;;;;;5032816;28;20022;-63
2021/12/02 11:00:25;;;;;;;1.85;0.50;;;6.70;99.90;;;;;;5032257;28;20074;-64
2021/12/02 11:02:53;;;;;;;;;;;6.40;99.90;;;;;;5032951;28;20040;-64
2021/12/02 11:05:26;;;;;;;0.57;0.57;;;6.70;99.90;;;;;;5031738;28;19974;-64
2021/12/02 11:07:53;;;;;;;0.85;0.77;;;6.50;99.90;;;;;;5041346;28;20505;-64
2021/12/02 11:10:18;;;;;;;1.58;0.50;;;6.20;99.90;;;;;;5052110;28;20032;-64
2021/12/02 11:12:49;;;;;;;0.60;0.60;;;6.20;99.90;;;;;;5051129;28;20033;-64
2021/12/02 11:15:20;;;;;;;2.42;0.77;;;6.40;99.90;;;;;;5051443;28;20028;-63
2021/12/02 11:17:49;;;;;;;0.60;0.60;;;6.30;99.90;;;;;;5052075;28;20025;-63
2021/12/02 11:20:23;;;;;;;0.77;0.77;;;6.10;99.90;;;;;;5047532;28;20561;-63
2021/12/02 11:23:13;;;;;;;0.73;0.57;;;6.00;99.90;;;;;;5052345;28;20025;-63
2021/12/02 11:25:58;;;;;;;0.55;0.55;;;6.00;99.90;;;;;;5050100;28;20045;-64
2021/12/02 11:28:26;;;;;;;0.55;0.55;;;6.00;99.90;;;;;;5052027;28;20226;-64
2021/12/02 11:30:53;;;;;;;0.60;0.60;;;5.90;99.90;;;;;;5051048;28;20078;-64
2021/12/02 11:33:19;;;;;;;1.65;0.60;;;6.60;99.90;;;;;;5052086;28;20025;-64
2021/12/02 11:35:47;;;;;;;0.50;0.50;;;6.20;99.90;;;;;;5050992;28;20029;-64
2021/12/02 11:38:23;;;;;;;1.65;0.40;;;6.20;99.90;;;;;;5042644;28;20402;-64
2021/12/02 11:40:55;;;;;;;0.50;0.50;;;6.70;99.90;;;;;;5051824;28;20025;-64
2021/12/02 11:43:28;;;;;;;0.43;0.43;;;6.50;99.90;;;;;;5045272;28;20021;-63
2021/12/02 11:45:57;;;;;;;0.50;0.50;;;6.60;99.90;;;;;;5050888;28;20036;-64
2021/12/02 11:48:26;;;;;;;0.60;0.50;;;6.50;99.90;;;;;;5050718;28;20096;-63
2021/12/02 11:50:54;;;;;;;1.65;0.40;;;6.30;99.90;;;;;;5031577;28;20021;-63
2021/12/02 11:53:21;;;;;;;0.50;0.50;;;6.40;99.90;;;;;;5040704;28;20021;-63
2021/12/02 11:55:50;;;;;;;0.40;0.40;;;6.40;99.90;;;;;;5046751;28;20035;-63
2021/12/02 11:58:15;;;;;;;0.50;0.50;;;7.10;99.90;;;;;;5050006;28;20467;-64
2021/12/02 12:00:44;;;;;;;0.40;0.40;;;6.40;99.90;;;;;;5050322;28;20107;-64
2021/12/02 12:03:29;;;;;;;1.15;0.55;;;5.90;99.90;;;;;;5051265;28;20586;-64
2021/12/02 12:05:59;;;;;;;0.40;0.40;;;5.70;99.90;;;;;;5050428;28;20032;-64
2021/12/02 12:08:38;;;;;;;0.50;0.50;;;5.70;99.90;;;;;;5046974;28;20140;-64
2021/12/02 12:11:28;;;;;;;0.80;0.60;;;6.10;99.90;;;;;;5051211;28;20745;-64
2021/12/02 12:14:04;;;;;;;0.40;0.40;;;5.60;99.90;;;;;;5050566;28;20068;-64
2021/12/02 12:16:36;;;;;;;1.63;0.70;;;5.90;99.90;;;;;;5050487;28;20021;-64
2021/12/02 12:19:25;;;;;;;1.25;0.70;;;6.00;99.90;;;;;;5047525;28;20071;-64
2021/12/02 12:21:54;;;;;;;0.75;0.65;;;6.20;99.90;;;;;;5051667;28;20041;-63
2021/12/02 12:24:45;;;;;;;5.35;3.03;;;5.80;99.90;;;;;;5050282;28;20040;-64
2021/12/02 12:27:10;;;;;;;0.90;0.90;;;5.40;99.90;;;;;;5051196;28;20411;-64
2021/12/02 12:29:36;;;;;;;0.80;0.80;;;6.00;99.90;;;;;;5050852;28;20029;-64
2021/12/02 12:32:13;;;;;;;0.90;0.90;;;5.20;99.90;;;;;;5046995;28;20029;-65
2021/12/02 12:34:43;;;;;;;1.27;0.85;;;5.20;99.90;;;;;;5050227;28;20064;-64
2021/12/02 12:40:17;;;;;;;1.48;0.90;;;5.50;99.90;;;;;;5006254;28;20069;-64
2021/12/02 12:43:02;;;;;;;0.68;0.68;;;5.80;99.90;;;;;;5046907;28;20150;-63
2021/12/02 12:45:41;;;;;;;0.68;0.68;;;5.20;99.90;;;;;;5030380;28;20060;-63
2021/12/02 12:48:10;;;;;;;0.63;0.60;;;5.20;99.90;;;;;;5031096;28;20033;-64
2021/12/02 12:50:38;;;;;;;1.35;0.90;;;5.70;99.90;;;;;;5050665;28;20220;-63
2021/12/02 12:55:40;;;;;;;0.60;0.60;;;5.50;99.90;;;;;;5045799;28;20074;-65
2021/12/02 12:58:15;;;;;;;0.55;0.55;;;5.30;99.90;;;;;;5050621;28;20028;-64
2021/12/02 13:00:43;;;;;;;0.88;0.68;;;5.80;99.90;;;;;;5044365;28;20059;-65
2021/12/02 13:03:13;;;;;;;1.15;0.90;;;5.40;99.90;;;;;;5054753;28;20030;-65
2021/12/02 13:05:48;;;;;;;0.77;0.70;;;5.70;99.90;;;;;;5071657;28;20432;-64
2021/12/02 13:08:26;;;;;;;0.60;0.60;;;5.50;99.90;;;;;;5052567;28;20033;-64
2021/12/02 13:11:03;;;;;;;0.55;0.55;;;5.50;99.90;;;;;;5054045;28;20033;-64
2021/12/02 13:13:34;;;;;;;0.70;0.70;;;5.00;99.90;;;;;;5053668;28;20031;-64
2021/12/02 13:16:18;;;;;;;1.13;0.60;;;5.90;99.90;;;;;;5053698;28;20017;-64
2021/12/02 13:18:54;;;;;;;0.80;0.80;;;4.90;99.90;;;;;;5054171;28;20028;-63
2021/12/02 13:21:24;;;;;;;0.70;0.70;;;5.50;99.90;;;;;;5046201;28;20025;-69
2021/12/02 13:23:57;;;;;;;0.80;0.68;;;5.80;99.90;;;;;;5053077;28;20029;-69
2021/12/02 13:26:33;;;;;;;3.22;0.88;;;5.80;99.90;;;;;;5053277;28;20025;-69